sensor_id;sensor_type;location;lat;lon;timestamp;temperature;humidity
6792;DHT22;3433;48.730;9.108;2022-10-22T00:01:04;14.30;99.90
6792;DHT22;3433;48.730;9.108;2022-10-22T00:03:31;14.20;99.90
6792;DHT22;3433;48.730;9.108;2022-10-22T00:05:58;14.10;99.90
6792;DHT22;3433;48.730;9.108;2022-10-22T00:08:25;14.10;99.90
6792;DHT22;3433;48.730;9.108;2022-10-22T00:10:52;14.20;99.90
6792;DHT22;3433;48.730;9.108;2022-10-22T00:13:21;14.20;99.90
6792;DHT22;3433;48.730;9.108;2022-10-22T00:15:48;14.20;99.90
6792;DHT22;3433;48.730;9.108;2022-10-22T00:18:15;14.10;99.90
6792;DHT22;3433;48.730;9.108;2022-10-22T00:20:42;14.10;99.90
6792;DHT22;3433;48.730;9.108;2022-10-22T00:23:09;14.20;99.90
6792;DHT22;3433;48.730;9.108;2022-10-22T00:25:36;14.20;99.90
6792;DHT22;3433;48.730;9.108;2022-10-22T00:28:03;14.00;99.90
6792;DHT22;3433;48.730;9.108;2022-10-22T00:30:31;14.00;99.90
6792;DHT22;3433;48.730;9.108;2022-10-22T00:32:58;14.00;99.90
6792;DHT22;3433;48.730;9.108;2022-10-22T00:35:25;13.80;99.90
6792;DHT22;3433;48.730;9.108;2022-10-22T00:37:52;13.90;99.90
6792;DHT22;3433;48.730;9.108;2022-10-22T00:40:19;13.90;99.90
6792;DHT22;3433;48.730;9.108;2022-10-22T00:42:46;13.80;99.90
6792;DHT22;3433;48.730;9.108;2022-10-22T00:45:19;14.00;99.90
6792;DHT22;3433;48.730;9.108;2022-10-22T00:47:54;14.00;99.90
6792;DHT22;3433;48.730;9.108;2022-10-22T00:50:28;13.90;99.90
6792;DHT22;3433;48.730;9.108;2022-10-22T00:52:57;13.90;99.90
6792;DHT22;3433;48.730;9.108;2022-10-22T00:55:25;13.80;99.90
6792;DHT22;3433;48.730;9.108;2022-10-22T00:57:54;13.80;99.90
6792;DHT22;3433;48.730;9.108;2022-10-22T01:00:22;13.90;99.90
6792;DHT22;3433;48.730;9.108;2022-10-22T01:02:51;13.90;99.90
6792;DHT22;3433;48.730;9.108;2022-10-22T01:05:18;13.80;99.90
6792;DHT22;3433;48.730;9.108;2022-10-22T01:07:47;13.80;99.90
6792;DHT22;3433;48.730;9.108;2022-10-22T01:10:25;13.80;99.90
6792;DHT22;3433;48.730;9.108;2022-10-22T01:13:01;13.90;99.90
6792;DHT22;3433;48.730;9.108;2022-10-22T01:15:37;14.00;99.90
6792;DHT22;3433;48.730;9.108;2022-10-22T01:18:11;13.90;99.90
6792;DHT22;3433;48.730;9.108;2022-10-22T01:20:57;13.90;99.90
6792;DHT22;3433;48.730;9.108;2022-10-22T01:23:51;13.90;99.90
6792;DHT22;3433;48.730;9.108;2022-10-22T01:26:26;13.90;99.90
6792;DHT22;3433;48.730;9.108;2022-10-22T01:29:01;13.90;99.90
6792;DHT22;3433;48.730;9.108;2022-10-22T01:31:37;13.90;99.90
6792;DHT22;3433;48.730;9.108;2022-10-22T01:34:06;13.90;99.90
6792;DHT22;3433;48.730;9.108;2022-10-22T01:36:34;13.80;99.90
6792;DHT22;3433;48.730;9.108;2022-10-22T01:39:04;13.80;99.90
6792;DHT22;3433;48.730;9.108;2022-10-22T01:41:33;13.70;99.90
6792;DHT22;3433;48.730;9.108;2022-10-22T01:44:02;13.80;99.90
6792;DHT22;3433;48.730;9.108;2022-10-22T01:46:29;13.80;99.90
6792;DHT22;3433;48.730;9.108;2022-10-22T01:49:10;13.80;99.90
6792;DHT22;3433;48.730;9.108;2022-10-22T01:51:51;13.70;99.90
6792;DHT22;3433;48.730;9.108;2022-10-22T01:54:29;13.70;99.90
6792;DHT22;3433;48.730;9.108;2022-10-22T01:57:06;13.70;99.90
6792;DHT22;3433;48.730;9.108;2022-10-22T01:59:43;13.60;99.90
6792;DHT22;3433;48.730;9.108;2022-10-22T02:02:23;13.60;99.90
6792;DHT22;3433;48.730;9.108;2022-10-22T02:04:54;13.70;99.90
6792;DHT22;3433;48.730;9.108;2022-10-22T02:07:27;13.80;99.90
6792;DHT22;3433;48.730;9.108;2022-10-22T02:09:56;13.80;99.90
6792;DHT22;3433;48.730;9.108;2022-10-22T02:12:25;13.70;99.90
6792;DHT22;3433;48.730;9.108;2022-10-22T02:14:55;13.70;99.90
6792;DHT22;3433;48.730;9.108;2022-10-22T02:17:24;13.80;99.90
6792;DHT22;3433;48.730;9.108;2022-10-22T02:19:53;13.80;99.90
6792;DHT22;3433;48.730;9.108;2022-10-22T02:22:22;13.80;99.90
6792;DHT22;3433;48.730;9.108;2022-10-22T02:24:53;13.80;99.90
6792;DHT22;3433;48.730;9.108;2022-10-22T02:27:24;13.80;99.90
6792;DHT22;3433;48.730;9.108;2022-10-22T02:29:57;13.90;99.90
6792;DHT22;3433;48.730;9.108;2022-10-22T02:32:30;13.80;99.90
6792;DHT22;3433;48.730;9.108;2022-10-22T02:34:59;13.80;99.90
6792;DHT22;3433;48.730;9.108;2022-10-22T02:37:27;13.70;99.90
6792;DHT22;3433;48.730;9.108;2022-10-22T02:39:54;13.80;99.90
6792;DHT22;3433;48.730;9.108;2022-10-22T02:42:22;13.80;99.90
6792;DHT22;3433;48.730;9.108;2022-10-22T02:44:54;13.70;99.90
6792;DHT22;3433;48.730;9.108;2022-10-22T02:47:21;13.80;99.90
6792;DHT22;3433;48.730;9.108;2022-10-22T02:49:48;13.60;99.90
6792;DHT22;3433;48.730;9.108;2022-10-22T02:52:15;13.60;99.90
6792;DHT22;3433;48.730;9.108;2022-10-22T02:54:42;13.60;99.90
6792;DHT22;3433;48.730;9.108;2022-10-22T02:57:08;13.60;99.90
6792;DHT22;3433;48.730;9.108;2022-10-22T02:59:35;13.60;99.90
6792;DHT22;3433;48.730;9.108;2022-10-22T03:02:04;13.50;99.90
6792;DHT22;3433;48.730;9.108;2022-10-22T03:04:31;13.50;99.90
6792;DHT22;3433;48.730;9.108;2022-10-22T03:06:58;13.60;99.90
6792;DHT22;3433;48.730;9.108;2022-10-22T03:09:25;13.60;99.90
6792;DHT22;3433;48.730;9.108;2022-10-22T03:11:52;13.70;99.90
6792;DHT22;3433;48.730;9.108;2022-10-22T03:14:19;13.60;99.90
6792;DHT22;3433;48.730;9.108;2022-10-22T03:16:46;13.60;99.90
6792;DHT22;3433;48.730;9.108;2022-10-22T03:19:14;13.70;99.90
6792;DHT22;3433;48.730;9.108;2022-10-22T03:21:44;13.70;99.90
6792;DHT22;3433;48.730;9.108;2022-10-22T03:24:16;13.80;99.90
6792;DHT22;3433;48.730;9.108;2022-10-22T03:26:44;13.80;99.90
6792;DHT22;3433;48.730;9.108;2022-10-22T03:29:14;13.80;99.90
6792;DHT22;3433;48.730;9.108;2022-10-22T03:31:41;13.90;99.90
6792;DHT22;3433;48.730;9.108;2022-10-22T03:34:08;13.80;99.90
6792;DHT22;3433;48.730;9.108;2022-10-22T03:36:38;13.90;99.90
6792;DHT22;3433;48.730;9.108;2022-10-22T03:39:06;13.80;99.90
6792;DHT22;3433;48.730;9.108;2022-10-22T03:41:33;13.70;99.90
6792;DHT22;3433;48.730;9.108;2022-10-22T03:44:02;13.80;99.90
6792;DHT22;3433;48.730;9.108;2022-10-22T03:46:30;13.80;99.90
6792;DHT22;3433;48.730;9.108;2022-10-22T03:48:57;13.60;99.90
6792;DHT22;3433;48.730;9.108;2022-10-22T03:53:53;13.70;99.90
6792;DHT22;3433;48.730;9.108;2022-10-22T03:56:20;13.60;99.90
6792;DHT22;3433;48.730;9.108;2022-10-22T03:58:48;13.60;99.90
6792;DHT22;3433;48.730;9.108;2022-10-22T04:01:14;13.60;99.90
6792;DHT22;3433;48.730;9.108;2022-10-22T04:03:41;13.50;99.90
6792;DHT22;3433;48.730;9.108;2022-10-22T04:06:10;13.40;99.90
6792;DHT22;3433;48.730;9.108;2022-10-22T04:08:38;13.40;99.90
6792;DHT22;3433;48.730;9.108;2022-10-22T04:11:07;13.40;99.90
6792;DHT22;3433;48.730;9.108;2022-10-22T04:13:34;13.40;99.90
6792;DHT22;3433;48.730;9.108;2022-10-22T04:16:08;13.40;99.90
6792;DHT22;3433;48.730;9.108;2022-10-22T04:18:35;13.50;99.90
6792;DHT22;3433;48.730;9.108;2022-10-22T04:21:03;13.60;99.90
6792;DHT22;3433;48.730;9.108;2022-10-22T04:23:30;13.60;99.90
6792;DHT22;3433;48.730;9.108;2022-10-22T04:25:57;13.70;99.90
6792;DHT22;3433;48.730;9.108;2022-10-22T04:28:26;13.70;99.90
6792;DHT22;3433;48.730;9.108;2022-10-22T04:30:53;13.70;99.90
6792;DHT22;3433;48.730;9.108;2022-10-22T04:33:20;13.60;99.90
6792;DHT22;3433;48.730;9.108;2022-10-22T04:35:47;13.60;99.90
6792;DHT22;3433;48.730;9.108;2022-10-22T04:38:14;13.50;99.90
6792;DHT22;3433;48.730;9.108;2022-10-22T04:40:41;13.50;99.90
6792;DHT22;3433;48.730;9.108;2022-10-22T04:43:08;13.50;99.90
6792;DHT22;3433;48.730;9.108;2022-10-22T04:45:36;13.50;99.90
6792;DHT22;3433;48.730;9.108;2022-10-22T04:48:04;13.50;99.90
6792;DHT22;3433;48.730;9.108;2022-10-22T04:50:31;13.50;99.90
6792;DHT22;3433;48.730;9.108;2022-10-22T04:52:58;13.50;99.90
6792;DHT22;3433;48.730;9.108;2022-10-22T04:55:25;13.60;99.90
6792;DHT22;3433;48.730;9.108;2022-10-22T04:57:52;13.70;99.90
6792;DHT22;3433;48.730;9.108;2022-10-22T05:00:18;13.60;99.90
6792;DHT22;3433;48.730;9.108;2022-10-22T05:02:49;13.60;99.90
6792;DHT22;3433;48.730;9.108;2022-10-22T05:05:17;13.60;99.90
6792;DHT22;3433;48.730;9.108;2022-10-22T05:07:43;13.60;99.90
6792;DHT22;3433;48.730;9.108;2022-10-22T05:10:10;13.60;99.90
6792;DHT22;3433;48.730;9.108;2022-10-22T05:12:37;13.50;99.90
6792;DHT22;3433;48.730;9.108;2022-10-22T05:15:05;13.50;99.90
6792;DHT22;3433;48.730;9.108;2022-10-22T05:17:35;13.50;99.90
6792;DHT22;3433;48.730;9.108;2022-10-22T05:20:05;13.60;99.90
6792;DHT22;3433;48.730;9.108;2022-10-22T05:22:33;13.70;99.90
6792;DHT22;3433;48.730;9.108;2022-10-22T05:25:00;13.70;99.90
6792;DHT22;3433;48.730;9.108;2022-10-22T05:27:27;13.70;99.90
6792;DHT22;3433;48.730;9.108;2022-10-22T05:29:54;13.60;99.90
6792;DHT22;3433;48.730;9.108;2022-10-22T05:32:20;13.60;99.90
6792;DHT22;3433;48.730;9.108;2022-10-22T05:34:47;13.60;99.90
6792;DHT22;3433;48.730;9.108;2022-10-22T05:37:15;13.50;99.90
6792;DHT22;3433;48.730;9.108;2022-10-22T05:39:42;13.60;99.90
6792;DHT22;3433;48.730;9.108;2022-10-22T05:42:09;13.50;99.90
6792;DHT22;3433;48.730;9.108;2022-10-22T05:44:36;13.60;99.90
6792;DHT22;3433;48.730;9.108;2022-10-22T05:47:05;13.50;99.90
6792;DHT22;3433;48.730;9.108;2022-10-22T05:49:32;13.60;99.90
6792;DHT22;3433;48.730;9.108;2022-10-22T05:51:59;13.60;99.90
6792;DHT22;3433;48.730;9.108;2022-10-22T05:54:29;13.60;99.90
6792;DHT22;3433;48.730;9.108;2022-10-22T05:56:56;13.60;99.90
6792;DHT22;3433;48.730;9.108;2022-10-22T05:59:23;13.70;99.90
6792;DHT22;3433;48.730;9.108;2022-10-22T06:01:50;13.80;99.90
6792;DHT22;3433;48.730;9.108;2022-10-22T06:04:17;13.80;99.90
6792;DHT22;3433;48.730;9.108;2022-10-22T06:06:45;13.90;99.90
6792;DHT22;3433;48.730;9.108;2022-10-22T06:09:16;13.90;99.90
6792;DHT22;3433;48.730;9.108;2022-10-22T06:11:45;13.90;99.90
6792;DHT22;3433;48.730;9.108;2022-10-22T06:14:13;13.90;99.90
6792;DHT22;3433;48.730;9.108;2022-10-22T06:16:40;13.90;99.90
6792;DHT22;3433;48.730;9.108;2022-10-22T06:19:09;14.00;99.90
6792;DHT22;3433;48.730;9.108;2022-10-22T06:21:36;13.90;99.90
6792;DHT22;3433;48.730;9.108;2022-10-22T06:24:04;13.80;99.90
6792;DHT22;3433;48.730;9.108;2022-10-22T06:26:31;13.90;99.90
6792;DHT22;3433;48.730;9.108;2022-10-22T06:29:00;14.00;99.90
6792;DHT22;3433;48.730;9.108;2022-10-22T06:31:28;14.00;99.90
6792;DHT22;3433;48.730;9.108;2022-10-22T06:34:01;14.00;99.90
6792;DHT22;3433;48.730;9.108;2022-10-22T06:36:28;14.00;99.90
6792;DHT22;3433;48.730;9.108;2022-10-22T06:38:55;14.00;99.90
6792;DHT22;3433;48.730;9.108;2022-10-22T06:41:23;14.10;99.90
6792;DHT22;3433;48.730;9.108;2022-10-22T06:43:50;14.10;99.90
6792;DHT22;3433;48.730;9.108;2022-10-22T06:46:20;14.10;99.90
6792;DHT22;3433;48.730;9.108;2022-10-22T06:48:51;14.20;99.90
6792;DHT22;3433;48.730;9.108;2022-10-22T06:51:18;14.10;99.90
6792;DHT22;3433;48.730;9.108;2022-10-22T06:53:47;14.10;99.90
6792;DHT22;3433;48.730;9.108;2022-10-22T06:56:17;14.10;99.90
6792;DHT22;3433;48.730;9.108;2022-10-22T06:58:46;14.20;99.90
6792;DHT22;3433;48.730;9.108;2022-10-22T07:01:14;14.10;99.90
6792;DHT22;3433;48.730;9.108;2022-10-22T07:03:42;14.20;99.90
6792;DHT22;3433;48.730;9.108;2022-10-22T07:06:11;14.20;99.90
6792;DHT22;3433;48.730;9.108;2022-10-22T07:08:38;14.10;99.90
6792;DHT22;3433;48.730;9.108;2022-10-22T07:11:07;14.00;99.90
6792;DHT22;3433;48.730;9.108;2022-10-22T07:13:34;14.10;99.90
6792;DHT22;3433;48.730;9.108;2022-10-22T07:16:02;14.20;99.90
6792;DHT22;3433;48.730;9.108;2022-10-22T07:18:29;14.30;99.90
6792;DHT22;3433;48.730;9.108;2022-10-22T07:20:57;14.40;99.90
6792;DHT22;3433;48.730;9.108;2022-10-22T07:23:24;14.40;99.90
6792;DHT22;3433;48.730;9.108;2022-10-22T07:25:54;14.40;99.90
6792;DHT22;3433;48.730;9.108;2022-10-22T07:28:21;14.40;99.90
6792;DHT22;3433;48.730;9.108;2022-10-22T07:30:49;14.50;99.90
6792;DHT22;3433;48.730;9.108;2022-10-22T07:33:16;14.50;99.90
6792;DHT22;3433;48.730;9.108;2022-10-22T07:35:42;14.60;99.90
6792;DHT22;3433;48.730;9.108;2022-10-22T07:38:11;14.60;99.90
6792;DHT22;3433;48.730;9.108;2022-10-22T07:40:38;14.60;99.90
6792;DHT22;3433;48.730;9.108;2022-10-22T07:43:05;14.60;99.90
6792;DHT22;3433;48.730;9.108;2022-10-22T07:45:32;14.60;99.90
6792;DHT22;3433;48.730;9.108;2022-10-22T07:48:00;14.60;99.90
6792;DHT22;3433;48.730;9.108;2022-10-22T07:50:27;14.70;99.90
6792;DHT22;3433;48.730;9.108;2022-10-22T07:52:54;14.70;99.90
6792;DHT22;3433;48.730;9.108;2022-10-22T07:55:22;14.80;99.90
6792;DHT22;3433;48.730;9.108;2022-10-22T07:57:49;14.70;99.90
6792;DHT22;3433;48.730;9.108;2022-10-22T08:00:16;14.80;99.90
6792;DHT22;3433;48.730;9.108;2022-10-22T08:02:43;14.80;99.90
6792;DHT22;3433;48.730;9.108;2022-10-22T08:05:10;14.80;99.90
6792;DHT22;3433;48.730;9.108;2022-10-22T08:07:38;14.90;99.90
6792;DHT22;3433;48.730;9.108;2022-10-22T08:10:06;14.90;99.90
6792;DHT22;3433;48.730;9.108;2022-10-22T08:12:34;14.90;99.90
6792;DHT22;3433;48.730;9.108;2022-10-22T08:15:02;14.90;99.90
6792;DHT22;3433;48.730;9.108;2022-10-22T08:17:29;14.90;99.90
6792;DHT22;3433;48.730;9.108;2022-10-22T08:19:56;15.00;99.90
6792;DHT22;3433;48.730;9.108;2022-10-22T08:22:23;15.10;99.90
6792;DHT22;3433;48.730;9.108;2022-10-22T08:24:50;15.10;99.90
6792;DHT22;3433;48.730;9.108;2022-10-22T08:27:18;15.10;99.90
6792;DHT22;3433;48.730;9.108;2022-10-22T08:29:46;15.20;99.90
6792;DHT22;3433;48.730;9.108;2022-10-22T08:32:13;15.30;99.90
6792;DHT22;3433;48.730;9.108;2022-10-22T08:34:40;15.40;99.90
6792;DHT22;3433;48.730;9.108;2022-10-22T08:37:07;15.40;99.90
6792;DHT22;3433;48.730;9.108;2022-10-22T08:39:35;15.50;99.90
6792;DHT22;3433;48.730;9.108;2022-10-22T08:42:12;15.70;99.90
6792;DHT22;3433;48.730;9.108;2022-10-22T08:44:54;15.70;99.90
6792;DHT22;3433;48.730;9.108;2022-10-22T08:47:40;15.90;99.90
6792;DHT22;3433;48.730;9.108;2022-10-22T08:50:16;16.00;99.90
6792;DHT22;3433;48.730;9.108;2022-10-22T08:52:50;16.20;99.90
6792;DHT22;3433;48.730;9.108;2022-10-22T08:55:19;16.20;99.90
6792;DHT22;3433;48.730;9.108;2022-10-22T08:57:53;16.40;99.90
6792;DHT22;3433;48.730;9.108;2022-10-22T09:00:30;16.50;99.90
6792;DHT22;3433;48.730;9.108;2022-10-22T09:03:11;16.60;99.90
6792;DHT22;3433;48.730;9.108;2022-10-22T09:05:47;16.70;99.90
6792;DHT22;3433;48.730;9.108;2022-10-22T09:08:16;16.80;99.90
6792;DHT22;3433;48.730;9.108;2022-10-22T09:10:47;17.00;99.90
6792;DHT22;3433;48.730;9.108;2022-10-22T09:13:18;17.10;99.90
6792;DHT22;3433;48.730;9.108;2022-10-22T09:15:50;17.20;99.90
6792;DHT22;3433;48.730;9.108;2022-10-22T09:18:28;17.30;99.90
6792;DHT22;3433;48.730;9.108;2022-10-22T09:21:04;17.50;99.90
6792;DHT22;3433;48.730;9.108;2022-10-22T09:23:37;17.50;99.90
6792;DHT22;3433;48.730;9.108;2022-10-22T09:26:12;17.70;99.90
6792;DHT22;3433;48.730;9.108;2022-10-22T09:28:39;17.70;99.90
6792;DHT22;3433;48.730;9.108;2022-10-22T09:31:11;17.90;99.90
6792;DHT22;3433;48.730;9.108;2022-10-22T09:33:39;18.10;99.90
6792;DHT22;3433;48.730;9.108;2022-10-22T09:36:07;18.30;99.90
6792;DHT22;3433;48.730;9.108;2022-10-22T09:38:39;18.50;99.90
6792;DHT22;3433;48.730;9.108;2022-10-22T09:41:08;18.80;99.90
6792;DHT22;3433;48.730;9.108;2022-10-22T09:43:35;19.00;99.90
6792;DHT22;3433;48.730;9.108;2022-10-22T09:46:04;19.30;99.90
6792;DHT22;3433;48.730;9.108;2022-10-22T09:48:35;19.40;99.90
6792;DHT22;3433;48.730;9.108;2022-10-22T09:51:05;19.70;99.90
6792;DHT22;3433;48.730;9.108;2022-10-22T09:53:40;19.70;99.90
6792;DHT22;3433;48.730;9.108;2022-10-22T09:56:13;19.90;99.90
6792;DHT22;3433;48.730;9.108;2022-10-22T09:58:44;19.90;99.90
6792;DHT22;3433;48.730;9.108;2022-10-22T10:01:17;20.10;99.90
6792;DHT22;3433;48.730;9.108;2022-10-22T10:03:47;20.30;99.90
6792;DHT22;3433;48.730;9.108;2022-10-22T10:06:17;20.40;99.90
6792;DHT22;3433;48.730;9.108;2022-10-22T10:08:45;20.70;99.90
6792;DHT22;3433;48.730;9.108;2022-10-22T10:11:18;20.90;99.90
6792;DHT22;3433;48.730;9.108;2022-10-22T10:13:56;20.80;99.90
6792;DHT22;3433;48.730;9.108;2022-10-22T10:16:31;20.80;99.90
6792;DHT22;3433;48.730;9.108;2022-10-22T10:19:16;20.80;99.90
6792;DHT22;3433;48.730;9.108;2022-10-22T10:21:51;20.70;99.90
6792;DHT22;3433;48.730;9.108;2022-10-22T10:24:25;20.70;99.90
6792;DHT22;3433;48.730;9.108;2022-10-22T10:26:59;20.70;99.90
6792;DHT22;3433;48.730;9.108;2022-10-22T10:29:38;20.90;99.90
6792;DHT22;3433;48.730;9.108;2022-10-22T10:32:23;21.00;99.90
6792;DHT22;3433;48.730;9.108;2022-10-22T10:35:06;21.20;99.90
6792;DHT22;3433;48.730;9.108;2022-10-22T10:37:40;21.40;99.90
6792;DHT22;3433;48.730;9.108;2022-10-22T10:40:19;21.60;99.90
6792;DHT22;3433;48.730;9.108;2022-10-22T10:42:54;21.50;99.90
6792;DHT22;3433;48.730;9.108;2022-10-22T10:45:30;21.80;99.90
6792;DHT22;3433;48.730;9.108;2022-10-22T10:48:17;22.00;99.90
6792;DHT22;3433;48.730;9.108;2022-10-22T10:50:57;22.10;99.90
6792;DHT22;3433;48.730;9.108;2022-10-22T10:53:34;22.30;99.90
6792;DHT22;3433;48.730;9.108;2022-10-22T10:56:08;22.30;99.90
6792;DHT22;3433;48.730;9.108;2022-10-22T10:58:44;22.30;99.90
6792;DHT22;3433;48.730;9.108;2022-10-22T11:01:21;22.40;99.90
6792;DHT22;3433;48.730;9.108;2022-10-22T11:04:20;22.60;99.90
6792;DHT22;3433;48.730;9.108;2022-10-22T11:06:54;22.80;99.90
6792;DHT22;3433;48.730;9.108;2022-10-22T11:09:26;22.90;99.90
6792;DHT22;3433;48.730;9.108;2022-10-22T11:11:56;22.70;99.90
6792;DHT22;3433;48.730;9.108;2022-10-22T11:14:28;23.00;99.90
6792;DHT22;3433;48.730;9.108;2022-10-22T11:16:59;23.20;99.90
6792;DHT22;3433;48.730;9.108;2022-10-22T11:19:32;23.30;99.90
6792;DHT22;3433;48.730;9.108;2022-10-22T11:22:05;23.20;99.90
6792;DHT22;3433;48.730;9.108;2022-10-22T11:24:38;23.40;99.90
6792;DHT22;3433;48.730;9.108;2022-10-22T11:27:19;23.30;99.90
6792;DHT22;3433;48.730;9.108;2022-10-22T11:29:52;23.20;99.90
6792;DHT22;3433;48.730;9.108;2022-10-22T11:32:21;23.10;99.90
6792;DHT22;3433;48.730;9.108;2022-10-22T11:34:54;23.00;99.90
6792;DHT22;3433;48.730;9.108;2022-10-22T11:37:25;23.10;99.90
6792;DHT22;3433;48.730;9.108;2022-10-22T11:39:58;22.60;99.90
6792;DHT22;3433;48.730;9.108;2022-10-22T11:42:32;22.40;99.90
6792;DHT22;3433;48.730;9.108;2022-10-22T11:45:03;22.30;99.90
6792;DHT22;3433;48.730;9.108;2022-10-22T11:47:33;22.60;99.90
6792;DHT22;3433;48.730;9.108;2022-10-22T11:50:17;22.80;99.90
6792;DHT22;3433;48.730;9.108;2022-10-22T11:52:53;23.10;99.90
6792;DHT22;3433;48.730;9.108;2022-10-22T11:55:34;23.20;99.90
6792;DHT22;3433;48.730;9.108;2022-10-22T11:58:26;23.20;99.90
6792;DHT22;3433;48.730;9.108;2022-10-22T12:00:55;23.20;99.90
6792;DHT22;3433;48.730;9.108;2022-10-22T12:03:24;23.50;99.90
6792;DHT22;3433;48.730;9.108;2022-10-22T12:06:17;23.70;99.90
6792;DHT22;3433;48.730;9.108;2022-10-22T12:08:51;24.00;99.90
6792;DHT22;3433;48.730;9.108;2022-10-22T12:11:21;24.20;99.90
6792;DHT22;3433;48.730;9.108;2022-10-22T12:14:01;24.60;99.90
6792;DHT22;3433;48.730;9.108;2022-10-22T12:16:35;25.00;99.90
6792;DHT22;3433;48.730;9.108;2022-10-22T12:19:04;25.10;99.90
6792;DHT22;3433;48.730;9.108;2022-10-22T12:21:33;25.30;99.90
6792;DHT22;3433;48.730;9.108;2022-10-22T12:24:02;25.40;99.90
6792;DHT22;3433;48.730;9.108;2022-10-22T12:26:30;25.40;99.90
6792;DHT22;3433;48.730;9.108;2022-10-22T12:29:00;25.40;99.90
6792;DHT22;3433;48.730;9.108;2022-10-22T12:31:27;25.20;99.90
6792;DHT22;3433;48.730;9.108;2022-10-22T12:34:00;25.00;99.90
6792;DHT22;3433;48.730;9.108;2022-10-22T12:36:28;24.50;99.90
6792;DHT22;3433;48.730;9.108;2022-10-22T12:38:58;24.40;99.90
6792;DHT22;3433;48.730;9.108;2022-10-22T12:41:31;24.60;99.90
6792;DHT22;3433;48.730;9.108;2022-10-22T12:43:58;24.70;99.90
6792;DHT22;3433;48.730;9.108;2022-10-22T12:46:27;25.00;99.90
6792;DHT22;3433;48.730;9.108;2022-10-22T12:48:54;25.20;99.90
6792;DHT22;3433;48.730;9.108;2022-10-22T12:51:25;25.40;99.90
6792;DHT22;3433;48.730;9.108;2022-10-22T12:53:53;25.50;99.90
6792;DHT22;3433;48.730;9.108;2022-10-22T12:56:22;25.90;99.90
6792;DHT22;3433;48.730;9.108;2022-10-22T12:58:56;26.10;99.90
6792;DHT22;3433;48.730;9.108;2022-10-22T13:01:26;26.40;99.90
6792;DHT22;3433;48.730;9.108;2022-10-22T13:04:05;26.30;99.90
6792;DHT22;3433;48.730;9.108;2022-10-22T13:06:33;26.30;99.90
6792;DHT22;3433;48.730;9.108;2022-10-22T13:09:13;26.30;99.90
6792;DHT22;3433;48.730;9.108;2022-10-22T13:11:48;26.00;99.40
6792;DHT22;3433;48.730;9.108;2022-10-22T13:14:25;25.60;99.90
6792;DHT22;3433;48.730;9.108;2022-10-22T13:17:07;25.40;99.90
6792;DHT22;3433;48.730;9.108;2022-10-22T13:19:43;25.00;99.90
6792;DHT22;3433;48.730;9.108;2022-10-22T13:22:31;25.10;99.90
6792;DHT22;3433;48.730;9.108;2022-10-22T13:25:03;25.00;99.70
6792;DHT22;3433;48.730;9.108;2022-10-22T13:27:30;25.00;99.90
6792;DHT22;3433;48.730;9.108;2022-10-22T13:30:02;25.30;99.90
6792;DHT22;3433;48.730;9.108;2022-10-22T13:32:34;25.50;99.90
6792;DHT22;3433;48.730;9.108;2022-10-22T13:35:02;25.70;99.90
6792;DHT22;3433;48.730;9.108;2022-10-22T13:37:31;25.70;99.90
6792;DHT22;3433;48.730;9.108;2022-10-22T13:40:00;25.80;99.90
6792;DHT22;3433;48.730;9.108;2022-10-22T13:42:27;25.90;99.90
6792;DHT22;3433;48.730;9.108;2022-10-22T13:44:53;25.90;99.90
6792;DHT22;3433;48.730;9.108;2022-10-22T13:47:27;25.80;99.90
6792;DHT22;3433;48.730;9.108;2022-10-22T13:49:57;25.90;99.90
6792;DHT22;3433;48.730;9.108;2022-10-22T13:52:28;25.80;99.90
6792;DHT22;3433;48.730;9.108;2022-10-22T13:54:57;25.80;99.90
6792;DHT22;3433;48.730;9.108;2022-10-22T13:57:23;25.80;99.00
6792;DHT22;3433;48.730;9.108;2022-10-22T13:59:50;25.70;99.90
6792;DHT22;3433;48.730;9.108;2022-10-22T14:02:18;25.70;99.90
6792;DHT22;3433;48.730;9.108;2022-10-22T14:04:50;25.60;99.90
6792;DHT22;3433;48.730;9.108;2022-10-22T14:07:18;25.50;99.90
6792;DHT22;3433;48.730;9.108;2022-10-22T14:09:45;25.60;99.90
6792;DHT22;3433;48.730;9.108;2022-10-22T14:12:14;25.50;99.90
6792;DHT22;3433;48.730;9.108;2022-10-22T14:14:42;25.40;98.30
6792;DHT22;3433;48.730;9.108;2022-10-22T14:17:11;24.80;99.90
6792;DHT22;3433;48.730;9.108;2022-10-22T14:19:41;24.40;99.80
6792;DHT22;3433;48.730;9.108;2022-10-22T14:22:13;24.00;98.00
6792;DHT22;3433;48.730;9.108;2022-10-22T14:24:40;23.90;98.90
6792;DHT22;3433;48.730;9.108;2022-10-22T14:27:09;24.00;99.90
6792;DHT22;3433;48.730;9.108;2022-10-22T14:29:37;23.90;99.90
6792;DHT22;3433;48.730;9.108;2022-10-22T14:32:08;24.10;99.90
6792;DHT22;3433;48.730;9.108;2022-10-22T14:34:36;24.00;97.20
6792;DHT22;3433;48.730;9.108;2022-10-22T14:37:03;23.80;99.30
6792;DHT22;3433;48.730;9.108;2022-10-22T14:39:31;23.90;99.40
6792;DHT22;3433;48.730;9.108;2022-10-22T14:41:58;23.90;99.90
6792;DHT22;3433;48.730;9.108;2022-10-22T14:44:25;24.00;99.90
6792;DHT22;3433;48.730;9.108;2022-10-22T14:46:52;23.90;99.90
6792;DHT22;3433;48.730;9.108;2022-10-22T14:49:20;23.80;99.90
6792;DHT22;3433;48.730;9.108;2022-10-22T14:51:47;23.60;99.00
6792;DHT22;3433;48.730;9.108;2022-10-22T14:54:14;23.50;99.60
6792;DHT22;3433;48.730;9.108;2022-10-22T14:56:43;23.30;99.80
6792;DHT22;3433;48.730;9.108;2022-10-22T14:59:10;23.10;97.40
6792;DHT22;3433;48.730;9.108;2022-10-22T15:01:37;22.80;98.00
6792;DHT22;3433;48.730;9.108;2022-10-22T15:04:06;22.70;99.80
6792;DHT22;3433;48.730;9.108;2022-10-22T15:06:33;22.40;98.60
6792;DHT22;3433;48.730;9.108;2022-10-22T15:09:00;22.20;98.60
6792;DHT22;3433;48.730;9.108;2022-10-22T15:11:27;22.10;99.30
6792;DHT22;3433;48.730;9.108;2022-10-22T15:13:55;21.80;97.90
6792;DHT22;3433;48.730;9.108;2022-10-22T15:16:22;21.70;98.40
6792;DHT22;3433;48.730;9.108;2022-10-22T15:18:52;21.60;99.30
6792;DHT22;3433;48.730;9.108;2022-10-22T15:21:20;21.50;99.70
6792;DHT22;3433;48.730;9.108;2022-10-22T15:23:47;21.40;99.90
6792;DHT22;3433;48.730;9.108;2022-10-22T15:26:15;21.40;99.90
6792;DHT22;3433;48.730;9.108;2022-10-22T15:28:42;21.20;99.20
6792;DHT22;3433;48.730;9.108;2022-10-22T15:31:12;21.00;98.70
6792;DHT22;3433;48.730;9.108;2022-10-22T15:33:40;21.00;99.80
6792;DHT22;3433;48.730;9.108;2022-10-22T15:36:11;20.90;99.90
6792;DHT22;3433;48.730;9.108;2022-10-22T15:38:38;20.70;99.50
6792;DHT22;3433;48.730;9.108;2022-10-22T15:41:07;20.60;99.60
6792;DHT22;3433;48.730;9.108;2022-10-22T15:43:35;20.60;99.90
6792;DHT22;3433;48.730;9.108;2022-10-22T15:46:09;20.60;99.90
6792;DHT22;3433;48.730;9.108;2022-10-22T15:48:38;20.50;99.90
6792;DHT22;3433;48.730;9.108;2022-10-22T15:51:09;20.40;99.90
6792;DHT22;3433;48.730;9.108;2022-10-22T15:53:36;20.40;99.90
6792;DHT22;3433;48.730;9.108;2022-10-22T15:56:04;20.30;99.90
6792;DHT22;3433;48.730;9.108;2022-10-22T15:58:31;20.30;99.90
6792;DHT22;3433;48.730;9.108;2022-10-22T16:01:03;20.20;99.90
6792;DHT22;3433;48.730;9.108;2022-10-22T16:03:32;20.20;99.90
6792;DHT22;3433;48.730;9.108;2022-10-22T16:06:00;20.10;99.90
6792;DHT22;3433;48.730;9.108;2022-10-22T16:08:27;20.00;99.90
6792;DHT22;3433;48.730;9.108;2022-10-22T16:10:56;19.90;99.90
6792;DHT22;3433;48.730;9.108;2022-10-22T16:13:23;19.70;99.90
6792;DHT22;3433;48.730;9.108;2022-10-22T16:15:52;19.60;99.90
6792;DHT22;3433;48.730;9.108;2022-10-22T16:18:19;19.50;99.90
6792;DHT22;3433;48.730;9.108;2022-10-22T16:20:48;19.30;99.90
6792;DHT22;3433;48.730;9.108;2022-10-22T16:23:17;19.20;99.90